sensor_id;sensor_type;location;lat;lon;timestamp;temperature;humidity
56478;DHT22;42382;53.210;5.772;2023-11-21T00:00:21;10.40;94.80
56478;DHT22;42382;53.210;5.772;2023-11-21T00:02:46;10.40;94.80
56478;DHT22;42382;53.210;5.772;2023-11-21T00:05:12;10.40;94.80
56478;DHT22;42382;53.210;5.772;2023-11-21T00:07:40;10.40;94.80
56478;DHT22;42382;53.210;5.772;2023-11-21T00:10:06;10.30;94.90
56478;DHT22;42382;53.210;5.772;2023-11-21T00:12:32;10.40;94.90
56478;DHT22;42382;53.210;5.772;2023-11-21T00:14:58;10.30;94.90
56478;DHT22;42382;53.210;5.772;2023-11-21T00:17:24;10.40;94.90
56478;DHT22;42382;53.210;5.772;2023-11-21T00:19:50;10.40;94.90
56478;DHT22;42382;53.210;5.772;2023-11-21T00:22:17;10.30;95.00
56478;DHT22;42382;53.210;5.772;2023-11-21T00:24:43;10.40;95.00
56478;DHT22;42382;53.210;5.772;2023-11-21T00:27:08;10.40;95.00
56478;DHT22;42382;53.210;5.772;2023-11-21T00:29:34;10.40;95.00
56478;DHT22;42382;53.210;5.772;2023-11-21T00:31:59;10.40;95.00
56478;DHT22;42382;53.210;5.772;2023-11-21T00:34:25;10.30;95.00
56478;DHT22;42382;53.210;5.772;2023-11-21T00:36:50;10.40;95.10
56478;DHT22;42382;53.210;5.772;2023-11-21T00:39:16;10.40;95.10
56478;DHT22;42382;53.210;5.772;2023-11-21T00:41:41;10.40;95.10
56478;DHT22;42382;53.210;5.772;2023-11-21T00:44:07;10.40;95.10
56478;DHT22;42382;53.210;5.772;2023-11-21T00:46:32;10.40;95.10
56478;DHT22;42382;53.210;5.772;2023-11-21T00:48:58;10.40;95.10
56478;DHT22;42382;53.210;5.772;2023-11-21T00:51:23;10.40;95.10
56478;DHT22;42382;53.210;5.772;2023-11-21T00:53:49;10.40;95.20
56478;DHT22;42382;53.210;5.772;2023-11-21T00:56:15;10.40;95.20
56478;DHT22;42382;53.210;5.772;2023-11-21T00:58:40;10.40;95.20
56478;DHT22;42382;53.210;5.772;2023-11-21T01:01:15;10.40;95.20
56478;DHT22;42382;53.210;5.772;2023-11-21T01:03:41;10.40;95.20
56478;DHT22;42382;53.210;5.772;2023-11-21T01:06:06;10.40;95.20
56478;DHT22;42382;53.210;5.772;2023-11-21T01:08:32;10.40;95.20
56478;DHT22;42382;53.210;5.772;2023-11-21T01:10:58;10.40;95.20
56478;DHT22;42382;53.210;5.772;2023-11-21T01:13:23;10.40;95.20
56478;DHT22;42382;53.210;5.772;2023-11-21T01:15:48;10.40;95.20
56478;DHT22;42382;53.210;5.772;2023-11-21T01:18:14;10.40;95.20
56478;DHT22;42382;53.210;5.772;2023-11-21T01:20:39;10.40;95.20
56478;DHT22;42382;53.210;5.772;2023-11-21T01:23:05;10.40;95.20
56478;DHT22;42382;53.210;5.772;2023-11-21T01:25:30;10.40;95.30
56478;DHT22;42382;53.210;5.772;2023-11-21T01:27:56;10.40;95.20
56478;DHT22;42382;53.210;5.772;2023-11-21T01:30:21;10.40;95.30
56478;DHT22;42382;53.210;5.772;2023-11-21T01:32:47;10.40;95.30
56478;DHT22;42382;53.210;5.772;2023-11-21T01:35:12;10.50;95.30
56478;DHT22;42382;53.210;5.772;2023-11-21T01:37:38;10.50;95.30
56478;DHT22;42382;53.210;5.772;2023-11-21T01:40:04;10.50;95.40
56478;DHT22;42382;53.210;5.772;2023-11-21T01:42:33;10.50;95.40
56478;DHT22;42382;53.210;5.772;2023-11-21T01:45:00;10.60;95.40
56478;DHT22;42382;53.210;5.772;2023-11-21T01:47:33;10.60;95.40
56478;DHT22;42382;53.210;5.772;2023-11-21T01:49:59;10.60;95.40
56478;DHT22;42382;53.210;5.772;2023-11-21T01:52:25;10.60;95.40
56478;DHT22;42382;53.210;5.772;2023-11-21T01:54:51;10.60;95.40
56478;DHT22;42382;53.210;5.772;2023-11-21T01:57:17;10.60;95.40
56478;DHT22;42382;53.210;5.772;2023-11-21T01:59:42;10.60;95.40
56478;DHT22;42382;53.210;5.772;2023-11-21T02:02:09;10.70;95.40
56478;DHT22;42382;53.210;5.772;2023-11-21T02:04:35;10.70;95.50
56478;DHT22;42382;53.210;5.772;2023-11-21T02:07:04;10.70;95.40
56478;DHT22;42382;53.210;5.772;2023-11-21T02:09:30;10.70;95.40
56478;DHT22;42382;53.210;5.772;2023-11-21T02:11:56;10.70;95.40
56478;DHT22;42382;53.210;5.772;2023-11-21T02:14:24;10.70;95.50
56478;DHT22;42382;53.210;5.772;2023-11-21T02:16:50;10.70;95.50
56478;DHT22;42382;53.210;5.772;2023-11-21T02:19:19;10.70;95.50
56478;DHT22;42382;53.210;5.772;2023-11-21T02:21:51;10.70;95.50
56478;DHT22;42382;53.210;5.772;2023-11-21T02:24:18;10.70;95.40
56478;DHT22;42382;53.210;5.772;2023-11-21T02:26:44;10.80;95.50
56478;DHT22;42382;53.210;5.772;2023-11-21T02:29:11;10.70;95.50
56478;DHT22;42382;53.210;5.772;2023-11-21T02:31:38;10.80;95.50
56478;DHT22;42382;53.210;5.772;2023-11-21T02:34:15;10.70;95.50
56478;DHT22;42382;53.210;5.772;2023-11-21T02:36:41;10.80;95.50
56478;DHT22;42382;53.210;5.772;2023-11-21T02:39:08;10.80;95.50
56478;DHT22;42382;53.210;5.772;2023-11-21T02:41:33;10.80;95.50
56478;DHT22;42382;53.210;5.772;2023-11-21T02:44:00;10.80;95.50
56478;DHT22;42382;53.210;5.772;2023-11-21T02:46:25;10.80;95.50
56478;DHT22;42382;53.210;5.772;2023-11-21T02:48:52;10.80;95.50
56478;DHT22;42382;53.210;5.772;2023-11-21T02:51:19;10.80;95.60
56478;DHT22;42382;53.210;5.772;2023-11-21T02:53:45;10.80;95.60
56478;DHT22;42382;53.210;5.772;2023-11-21T02:56:12;10.80;95.60
56478;DHT22;42382;53.210;5.772;2023-11-21T02:58:37;10.80;95.60
56478;DHT22;42382;53.210;5.772;2023-11-21T03:01:03;10.80;95.60
56478;DHT22;42382;53.210;5.772;2023-11-21T03:03:31;10.80;95.60
56478;DHT22;42382;53.210;5.772;2023-11-21T03:05:56;10.80;95.60
56478;DHT22;42382;53.210;5.772;2023-11-21T03:08:21;10.80;95.60
56478;DHT22;42382;53.210;5.772;2023-11-21T03:10:47;10.80;95.60
56478;DHT22;42382;53.210;5.772;2023-11-21T03:13:12;10.80;95.60
56478;DHT22;42382;53.210;5.772;2023-11-21T03:15:38;10.70;95.60
56478;DHT22;42382;53.210;5.772;2023-11-21T03:18:04;10.70;95.60
56478;DHT22;42382;53.210;5.772;2023-11-21T03:20:30;10.70;95.60
56478;DHT22;42382;53.210;5.772;2023-11-21T03:22:55;10.70;95.60
56478;DHT22;42382;53.210;5.772;2023-11-21T03:25:21;10.70;95.60
56478;DHT22;42382;53.210;5.772;2023-11-21T03:27:49;10.70;95.60
56478;DHT22;42382;53.210;5.772;2023-11-21T03:30:15;10.70;95.60
56478;DHT22;42382;53.210;5.772;2023-11-21T03:32:42;10.70;95.60
56478;DHT22;42382;53.210;5.772;2023-11-21T03:35:07;10.70;95.60
56478;DHT22;42382;53.210;5.772;2023-11-21T03:37:33;10.70;95.60
56478;DHT22;42382;53.210;5.772;2023-11-21T03:39:58;10.70;95.60
56478;DHT22;42382;53.210;5.772;2023-11-21T03:42:24;10.70;95.70
56478;DHT22;42382;53.210;5.772;2023-11-21T03:44:52;10.70;95.60
56478;DHT22;42382;53.210;5.772;2023-11-21T03:47:17;10.70;95.60
56478;DHT22;42382;53.210;5.772;2023-11-21T03:49:44;10.60;95.60
56478;DHT22;42382;53.210;5.772;2023-11-21T03:52:10;10.60;95.60
56478;DHT22;42382;53.210;5.772;2023-11-21T03:54:37;10.70;95.70
56478;DHT22;42382;53.210;5.772;2023-11-21T03:57:02;10.70;95.60
56478;DHT22;42382;53.210;5.772;2023-11-21T03:59:28;10.70;95.70
56478;DHT22;42382;53.210;5.772;2023-11-21T04:01:55;10.60;95.50
56478;DHT22;42382;53.210;5.772;2023-11-21T04:04:20;10.60;95.60
56478;DHT22;42382;53.210;5.772;2023-11-21T04:06:46;10.60;95.60
56478;DHT22;42382;53.210;5.772;2023-11-21T04:09:11;10.60;95.60
56478;DHT22;42382;53.210;5.772;2023-11-21T04:11:37;10.60;95.70
56478;DHT22;42382;53.210;5.772;2023-11-21T04:14:03;10.60;95.70
56478;DHT22;42382;53.210;5.772;2023-11-21T04:16:28;10.60;95.70
56478;DHT22;42382;53.210;5.772;2023-11-21T04:18:54;10.60;95.60
56478;DHT22;42382;53.210;5.772;2023-11-21T04:21:19;10.50;95.60
56478;DHT22;42382;53.210;5.772;2023-11-21T04:23:45;10.60;95.70
56478;DHT22;42382;53.210;5.772;2023-11-21T04:26:10;10.60;95.60
56478;DHT22;42382;53.210;5.772;2023-11-21T04:28:37;10.60;95.60
56478;DHT22;42382;53.210;5.772;2023-11-21T04:31:03;10.50;95.60
56478;DHT22;42382;53.210;5.772;2023-11-21T04:33:28;10.50;95.70
56478;DHT22;42382;53.210;5.772;2023-11-21T04:35:54;10.40;95.60
56478;DHT22;42382;53.210;5.772;2023-11-21T04:38:20;10.50;95.60
56478;DHT22;42382;53.210;5.772;2023-11-21T04:40:45;10.40;95.70
56478;DHT22;42382;53.210;5.772;2023-11-21T04:43:11;10.40;95.70
56478;DHT22;42382;53.210;5.772;2023-11-21T04:45:36;10.40;95.70
56478;DHT22;42382;53.210;5.772;2023-11-21T04:48:02;10.40;95.80
56478;DHT22;42382;53.210;5.772;2023-11-21T04:50:27;10.40;95.80
56478;DHT22;42382;53.210;5.772;2023-11-21T04:52:53;10.40;95.80
56478;DHT22;42382;53.210;5.772;2023-11-21T04:55:19;10.40;95.70
56478;DHT22;42382;53.210;5.772;2023-11-21T04:57:44;10.40;95.80
56478;DHT22;42382;53.210;5.772;2023-11-21T05:00:10;10.40;95.80
56478;DHT22;42382;53.210;5.772;2023-11-21T05:02:36;10.30;95.80
56478;DHT22;42382;53.210;5.772;2023-11-21T05:05:03;10.40;95.80
56478;DHT22;42382;53.210;5.772;2023-11-21T05:07:31;10.40;95.90
56478;DHT22;42382;53.210;5.772;2023-11-21T05:09:57;10.40;95.80
56478;DHT22;42382;53.210;5.772;2023-11-21T05:12:23;10.30;95.80
56478;DHT22;42382;53.210;5.772;2023-11-21T05:14:49;10.30;95.80
56478;DHT22;42382;53.210;5.772;2023-11-21T05:17:15;10.20;95.70
56478;DHT22;42382;53.210;5.772;2023-11-21T05:19:40;10.20;95.80
56478;DHT22;42382;53.210;5.772;2023-11-21T05:22:06;10.10;95.70
56478;DHT22;42382;53.210;5.772;2023-11-21T05:24:31;10.10;95.80
56478;DHT22;42382;53.210;5.772;2023-11-21T05:26:57;10.10;95.70
56478;DHT22;42382;53.210;5.772;2023-11-21T05:29:23;10.00;95.70
56478;DHT22;42382;53.210;5.772;2023-11-21T05:31:48;10.00;95.60
56478;DHT22;42382;53.210;5.772;2023-11-21T05:34:14;9.90;95.60
56478;DHT22;42382;53.210;5.772;2023-11-21T05:36:40;9.90;95.60
56478;DHT22;42382;53.210;5.772;2023-11-21T05:39:06;9.80;95.60
56478;DHT22;42382;53.210;5.772;2023-11-21T05:41:31;9.80;95.70
56478;DHT22;42382;53.210;5.772;2023-11-21T05:43:57;9.80;95.70
56478;DHT22;42382;53.210;5.772;2023-11-21T05:46:22;9.80;95.70
56478;DHT22;42382;53.210;5.772;2023-11-21T05:48:48;9.80;95.70
56478;DHT22;42382;53.210;5.772;2023-11-21T05:51:13;9.80;95.70
56478;DHT22;42382;53.210;5.772;2023-11-21T05:53:39;9.80;95.80
56478;DHT22;42382;53.210;5.772;2023-11-21T05:56:04;9.80;95.80
56478;DHT22;42382;53.210;5.772;2023-11-21T05:58:30;9.80;95.70
56478;DHT22;42382;53.210;5.772;2023-11-21T06:00:55;9.70;95.80
56478;DHT22;42382;53.210;5.772;2023-11-21T06:03:21;9.80;95.90
56478;DHT22;42382;53.210;5.772;2023-11-21T06:05:48;9.80;95.80
56478;DHT22;42382;53.210;5.772;2023-11-21T06:08:13;9.80;95.80
56478;DHT22;42382;53.210;5.772;2023-11-21T06:10:42;9.70;95.80
56478;DHT22;42382;53.210;5.772;2023-11-21T06:13:09;9.70;95.80
56478;DHT22;42382;53.210;5.772;2023-11-21T06:15:35;9.70;95.80
56478;DHT22;42382;53.210;5.772;2023-11-21T06:18:01;9.80;95.90
56478;DHT22;42382;53.210;5.772;2023-11-21T06:20:26;9.80;95.80
56478;DHT22;42382;53.210;5.772;2023-11-21T06:22:52;9.80;95.80
56478;DHT22;42382;53.210;5.772;2023-11-21T06:25:18;9.70;95.80
56478;DHT22;42382;53.210;5.772;2023-11-21T06:27:44;9.70;95.80
56478;DHT22;42382;53.210;5.772;2023-11-21T06:30:10;9.70;95.80
56478;DHT22;42382;53.210;5.772;2023-11-21T06:32:37;9.70;95.80
56478;DHT22;42382;53.210;5.772;2023-11-21T06:35:03;9.70;95.80
56478;DHT22;42382;53.210;5.772;2023-11-21T06:37:29;9.70;95.80
56478;DHT22;42382;53.210;5.772;2023-11-21T06:39:55;9.70;95.90
56478;DHT22;42382;53.210;5.772;2023-11-21T06:42:22;9.70;95.80
56478;DHT22;42382;53.210;5.772;2023-11-21T06:44:48;9.70;95.80
56478;DHT22;42382;53.210;5.772;2023-11-21T06:47:14;9.70;95.80
56478;DHT22;42382;53.210;5.772;2023-11-21T06:49:41;9.70;95.70
56478;DHT22;42382;53.210;5.772;2023-11-21T06:52:06;9.70;95.70
56478;DHT22;42382;53.210;5.772;2023-11-21T06:54:32;9.70;95.80
56478;DHT22;42382;53.210;5.772;2023-11-21T06:56:58;9.70;95.70
56478;DHT22;42382;53.210;5.772;2023-11-21T06:59:23;9.70;95.70
56478;DHT22;42382;53.210;5.772;2023-11-21T07:01:50;9.60;95.70
56478;DHT22;42382;53.210;5.772;2023-11-21T07:04:15;9.60;95.70
56478;DHT22;42382;53.210;5.772;2023-11-21T07:06:40;9.60;95.70
56478;DHT22;42382;53.210;5.772;2023-11-21T07:09:06;9.60;95.60
56478;DHT22;42382;53.210;5.772;2023-11-21T07:11:34;9.60;95.60
56478;DHT22;42382;53.210;5.772;2023-11-21T07:13:59;9.50;95.60
56478;DHT22;42382;53.210;5.772;2023-11-21T07:16:27;9.50;95.50
56478;DHT22;42382;53.210;5.772;2023-11-21T07:18:54;9.50;95.60
56478;DHT22;42382;53.210;5.772;2023-11-21T07:21:20;9.50;95.60
56478;DHT22;42382;53.210;5.772;2023-11-21T07:23:46;9.40;95.50
56478;DHT22;42382;53.210;5.772;2023-11-21T07:26:11;9.40;95.50
56478;DHT22;42382;53.210;5.772;2023-11-21T07:28:37;9.40;95.40
56478;DHT22;42382;53.210;5.772;2023-11-21T07:31:03;9.40;95.40
56478;DHT22;42382;53.210;5.772;2023-11-21T07:33:28;9.40;95.40
56478;DHT22;42382;53.210;5.772;2023-11-21T07:35:54;9.40;95.40
56478;DHT22;42382;53.210;5.772;2023-11-21T07:38:19;9.40;95.40
56478;DHT22;42382;53.210;5.772;2023-11-21T07:40:45;9.40;95.30
56478;DHT22;42382;53.210;5.772;2023-11-21T07:43:10;9.40;95.30
56478;DHT22;42382;53.210;5.772;2023-11-21T07:45:36;9.40;95.30
56478;DHT22;42382;53.210;5.772;2023-11-21T07:48:02;9.40;95.30
56478;DHT22;42382;53.210;5.772;2023-11-21T07:50:28;9.40;95.10
56478;DHT22;42382;53.210;5.772;2023-11-21T07:52:54;9.40;95.20
56478;DHT22;42382;53.210;5.772;2023-11-21T07:55:20;9.40;95.10
56478;DHT22;42382;53.210;5.772;2023-11-21T07:57:45;9.40;95.10
56478;DHT22;42382;53.210;5.772;2023-11-21T08:00:11;9.40;95.00
56478;DHT22;42382;53.210;5.772;2023-11-21T08:02:40;9.40;95.10
56478;DHT22;42382;53.210;5.772;2023-11-21T08:05:11;9.30;95.00
56478;DHT22;42382;53.210;5.772;2023-11-21T08:07:37;9.40;94.90
56478;DHT22;42382;53.210;5.772;2023-11-21T08:10:03;9.30;95.00
56478;DHT22;42382;53.210;5.772;2023-11-21T08:12:30;9.30;94.80
56478;DHT22;42382;53.210;5.772;2023-11-21T08:14:56;9.30;94.90
56478;DHT22;42382;53.210;5.772;2023-11-21T08:17:21;9.30;94.90
56478;DHT22;42382;53.210;5.772;2023-11-21T08:19:47;9.40;94.90
56478;DHT22;42382;53.210;5.772;2023-11-21T08:22:17;9.30;94.70
56478;DHT22;42382;53.210;5.772;2023-11-21T08:24:43;9.30;94.70
56478;DHT22;42382;53.210;5.772;2023-11-21T08:27:09;9.30;94.80
56478;DHT22;42382;53.210;5.772;2023-11-21T08:29:34;9.30;94.60
56478;DHT22;42382;53.210;5.772;2023-11-21T08:32:01;9.30;94.50
56478;DHT22;42382;53.210;5.772;2023-11-21T08:34:27;9.30;94.60
56478;DHT22;42382;53.210;5.772;2023-11-21T08:36:54;9.30;94.60
56478;DHT22;42382;53.210;5.772;2023-11-21T08:39:19;9.40;94.50
56478;DHT22;42382;53.210;5.772;2023-11-21T08:41:45;9.40;94.50
56478;DHT22;42382;53.210;5.772;2023-11-21T08:44:11;9.40;94.60
56478;DHT22;42382;53.210;5.772;2023-11-21T08:46:36;9.40;94.20
56478;DHT22;42382;53.210;5.772;2023-11-21T08:49:03;9.40;94.10
56478;DHT22;42382;53.210;5.772;2023-11-21T08:51:29;9.40;93.90
56478;DHT22;42382;53.210;5.772;2023-11-21T08:53:54;9.40;93.90
56478;DHT22;42382;53.210;5.772;2023-11-21T08:56:24;9.40;94.00
56478;DHT22;42382;53.210;5.772;2023-11-21T08:58:50;9.40;93.90
56478;DHT22;42382;53.210;5.772;2023-11-21T09:01:15;9.40;93.90
56478;DHT22;42382;53.210;5.772;2023-11-21T09:03:41;9.40;93.70
56478;DHT22;42382;53.210;5.772;2023-11-21T09:06:09;9.40;93.40
56478;DHT22;42382;53.210;5.772;2023-11-21T09:08:35;9.30;93.40
56478;DHT22;42382;53.210;5.772;2023-11-21T09:11:00;9.40;93.40
56478;DHT22;42382;53.210;5.772;2023-11-21T09:13:26;9.40;93.40
56478;DHT22;42382;53.210;5.772;2023-11-21T09:15:52;9.40;93.30
56478;DHT22;42382;53.210;5.772;2023-11-21T09:18:18;9.40;93.30
56478;DHT22;42382;53.210;5.772;2023-11-21T09:20:43;9.50;93.30
56478;DHT22;42382;53.210;5.772;2023-11-21T09:23:11;9.50;92.80
56478;DHT22;42382;53.210;5.772;2023-11-21T09:25:37;9.60;92.90
56478;DHT22;42382;53.210;5.772;2023-11-21T09:28:03;9.60;92.60
56478;DHT22;42382;53.210;5.772;2023-11-21T09:30:33;9.60;92.70
56478;DHT22;42382;53.210;5.772;2023-11-21T09:32:59;9.70;92.80
56478;DHT22;42382;53.210;5.772;2023-11-21T09:35:25;9.90;92.70
56478;DHT22;42382;53.210;5.772;2023-11-21T09:37:53;10.00;92.30
56478;DHT22;42382;53.210;5.772;2023-11-21T09:40:20;10.10;92.30
56478;DHT22;42382;53.210;5.772;2023-11-21T09:45:28;10.30;91.90
56478;DHT22;42382;53.210;5.772;2023-11-21T09:47:55;10.40;91.80
56478;DHT22;42382;53.210;5.772;2023-11-21T09:50:21;10.40;90.70
56478;DHT22;42382;53.210;5.772;2023-11-21T09:55:18;10.50;90.40
56478;DHT22;42382;53.210;5.772;2023-11-21T09:57:49;10.50;90.00
56478;DHT22;42382;53.210;5.772;2023-11-21T10:00:15;10.50;90.00
56478;DHT22;42382;53.210;5.772;2023-11-21T10:02:43;10.50;90.30
56478;DHT22;42382;53.210;5.772;2023-11-21T10:05:08;10.40;89.60
56478;DHT22;42382;53.210;5.772;2023-11-21T10:07:37;10.30;89.20
56478;DHT22;42382;53.210;5.772;2023-11-21T10:10:05;10.30;89.90
56478;DHT22;42382;53.210;5.772;2023-11-21T10:12:34;10.20;89.70
56478;DHT22;42382;53.210;5.772;2023-11-21T10:15:00;10.20;89.90
56478;DHT22;42382;53.210;5.772;2023-11-21T10:17:26;10.20;89.80
56478;DHT22;42382;53.210;5.772;2023-11-21T10:19:55;10.20;89.60
56478;DHT22;42382;53.210;5.772;2023-11-21T10:22:21;10.10;90.10
56478;DHT22;42382;53.210;5.772;2023-11-21T10:24:47;10.10;89.80
56478;DHT22;42382;53.210;5.772;2023-11-21T10:27:13;10.10;89.70
56478;DHT22;42382;53.210;5.772;2023-11-21T10:29:41;10.00;89.30
56478;DHT22;42382;53.210;5.772;2023-11-21T10:32:07;9.90;89.30
56478;DHT22;42382;53.210;5.772;2023-11-21T10:34:32;9.90;89.30
56478;DHT22;42382;53.210;5.772;2023-11-21T10:36:58;9.80;89.50
56478;DHT22;42382;53.210;5.772;2023-11-21T10:39:24;9.90;89.80
56478;DHT22;42382;53.210;5.772;2023-11-21T10:41:53;9.80;90.00
56478;DHT22;42382;53.210;5.772;2023-11-21T10:44:20;9.80;90.00
56478;DHT22;42382;53.210;5.772;2023-11-21T10:46:53;9.80;89.80
56478;DHT22;42382;53.210;5.772;2023-11-21T10:49:25;9.80;89.80
56478;DHT22;42382;53.210;5.772;2023-11-21T10:51:51;9.80;89.70
56478;DHT22;42382;53.210;5.772;2023-11-21T10:54:22;9.80;89.90
56478;DHT22;42382;53.210;5.772;2023-11-21T10:56:49;9.80;90.00
56478;DHT22;42382;53.210;5.772;2023-11-21T10:59:16;9.80;90.10
56478;DHT22;42382;53.210;5.772;2023-11-21T11:01:42;9.80;89.80
56478;DHT22;42382;53.210;5.772;2023-11-21T11:04:09;9.80;89.60
56478;DHT22;42382;53.210;5.772;2023-11-21T11:06:45;9.90;90.00
56478;DHT22;42382;53.210;5.772;2023-11-21T11:09:12;10.00;89.40
56478;DHT22;42382;53.210;5.772;2023-11-21T11:11:41;10.10;89.60
56478;DHT22;42382;53.210;5.772;2023-11-21T11:14:13;10.20;89.40
56478;DHT22;42382;53.210;5.772;2023-11-21T11:16:39;10.10;88.70
56478;DHT22;42382;53.210;5.772;2023-11-21T11:19:07;10.10;88.90
56478;DHT22;42382;53.210;5.772;2023-11-21T11:21:53;10.00;89.40
56478;DHT22;42382;53.210;5.772;2023-11-21T11:26:57;10.00;89.30
56478;DHT22;42382;53.210;5.772;2023-11-21T11:29:31;10.00;89.10
56478;DHT22;42382;53.210;5.772;2023-11-21T11:34:30;10.00;88.50
56478;DHT22;42382;53.210;5.772;2023-11-21T11:39:32;10.00;88.80
56478;DHT22;42382;53.210;5.772;2023-11-21T11:42:02;9.90;88.90
56478;DHT22;42382;53.210;5.772;2023-11-21T11:44:49;9.90;88.90
56478;DHT22;42382;53.210;5.772;2023-11-21T11:47:27;9.90;89.00
56478;DHT22;42382;53.210;5.772;2023-11-21T11:50:08;10.00;89.20
56478;DHT22;42382;53.210;5.772;2023-11-21T11:52:39;10.10;89.50
56478;DHT22;42382;53.210;5.772;2023-11-21T11:55:09;10.20;89.20
56478;DHT22;42382;53.210;5.772;2023-11-21T11:57:42;10.20;87.10
56478;DHT22;42382;53.210;5.772;2023-11-21T12:00:08;10.10;87.60
56478;DHT22;42382;53.210;5.772;2023-11-21T12:02:36;10.00;87.50
56478;DHT22;42382;53.210;5.772;2023-11-21T12:05:07;10.10;88.00
56478;DHT22;42382;53.210;5.772;2023-11-21T12:10:11;10.10;87.90
56478;DHT22;42382;53.210;5.772;2023-11-21T12:12:36;10.10;87.60
56478;DHT22;42382;53.210;5.772;2023-11-21T12:15:04;10.10;87.50
56478;DHT22;42382;53.210;5.772;2023-11-21T12:17:30;10.00;86.30
56478;DHT22;42382;53.210;5.772;2023-11-21T12:20:01;10.00;86.70
56478;DHT22;42382;53.210;5.772;2023-11-21T12:22:28;10.00;87.20
56478;DHT22;42382;53.210;5.772;2023-11-21T12:24:54;10.10;87.00
56478;DHT22;42382;53.210;5.772;2023-11-21T12:27:20;10.20;86.00
56478;DHT22;42382;53.210;5.772;2023-11-21T12:29:46;10.30;85.90
56478;DHT22;42382;53.210;5.772;2023-11-21T12:32:11;10.30;85.60
56478;DHT22;42382;53.210;5.772;2023-11-21T12:34:37;10.30;84.10
56478;DHT22;42382;53.210;5.772;2023-11-21T12:37:05;10.40;84.90
56478;DHT22;42382;53.210;5.772;2023-11-21T12:39:31;10.40;85.30
56478;DHT22;42382;53.210;5.772;2023-11-21T12:41:56;10.40;83.50
56478;DHT22;42382;53.210;5.772;2023-11-21T12:44:22;10.30;82.20
56478;DHT22;42382;53.210;5.772;2023-11-21T12:46:49;10.30;83.40
56478;DHT22;42382;53.210;5.772;2023-11-21T12:49:15;10.30;83.90
56478;DHT22;42382;53.210;5.772;2023-11-21T12:51:43;10.20;84.20
56478;DHT22;42382;53.210;5.772;2023-11-21T12:54:10;10.20;83.80
56478;DHT22;42382;53.210;5.772;2023-11-21T12:56:38;10.20;84.60
56478;DHT22;42382;53.210;5.772;2023-11-21T12:59:04;10.10;83.70
56478;DHT22;42382;53.210;5.772;2023-11-21T13:01:30;10.10;84.10
56478;DHT22;42382;53.210;5.772;2023-11-21T13:03:57;10.00;83.70
56478;DHT22;42382;53.210;5.772;2023-11-21T13:06:23;10.10;84.70
56478;DHT22;42382;53.210;5.772;2023-11-21T13:08:51;10.10;84.90
56478;DHT22;42382;53.210;5.772;2023-11-21T13:11:17;10.10;85.30
56478;DHT22;42382;53.210;5.772;2023-11-21T13:13:42;10.10;85.30
56478;DHT22;42382;53.210;5.772;2023-11-21T13:16:11;10.10;84.80
56478;DHT22;42382;53.210;5.772;2023-11-21T13:18:37;10.00;85.00
56478;DHT22;42382;53.210;5.772;2023-11-21T13:21:07;10.00;84.60
56478;DHT22;42382;53.210;5.772;2023-11-21T13:23:40;10.10;84.80
56478;DHT22;42382;53.210;5.772;2023-11-21T13:26:07;10.20;84.80
56478;DHT22;42382;53.210;5.772;2023-11-21T13:28:34;10.10;84.60
56478;DHT22;42382;53.210;5.772;2023-11-21T13:31:00;10.10;83.60
56478;DHT22;42382;53.210;5.772;2023-11-21T13:33:29;10.10;84.00
56478;DHT22;42382;53.210;5.772;2023-11-21T13:35:55;10.10;84.20
56478;DHT22;42382;53.210;5.772;2023-11-21T13:38:22;10.00;83.60
56478;DHT22;42382;53.210;5.772;2023-11-21T13:40:55;10.00;84.00
56478;DHT22;42382;53.210;5.772;2023-11-21T13:43:22;9.90;83.90
56478;DHT22;42382;53.210;5.772;2023-11-21T13:45:49;9.90;83.90
56478;DHT22;42382;53.210;5.772;2023-11-21T13:48:23;9.80;84.40
56478;DHT22;42382;53.210;5.772;2023-11-21T13:50:56;9.80;84.60
56478;DHT22;42382;53.210;5.772;2023-11-21T13:53:33;9.80;84.80
56478;DHT22;42382;53.210;5.772;2023-11-21T13:56:01;9.70;84.90
56478;DHT22;42382;53.210;5.772;2023-11-21T13:58:27;9.70;85.40
56478;DHT22;42382;53.210;5.772;2023-11-21T14:01:11;9.60;85.30
56478;DHT22;42382;53.210;5.772;2023-11-21T14:03:48;9.60;85.30
56478;DHT22;42382;53.210;5.772;2023-11-21T14:06:19;9.50;85.20
56478;DHT22;42382;53.210;5.772;2023-11-21T14:08:50;9.40;85.50
56478;DHT22;42382;53.210;5.772;2023-11-21T14:11:16;9.40;86.00
56478;DHT22;42382;53.210;5.772;2023-11-21T14:13:44;9.30;86.20
56478;DHT22;42382;53.210;5.772;2023-11-21T14:16:14;9.30;86.80
56478;DHT22;42382;53.210;5.772;2023-11-21T14:18:42;9.20;86.90
56478;DHT22;42382;53.210;5.772;2023-11-21T14:21:18;9.20;87.10
56478;DHT22;42382;53.210;5.772;2023-11-21T14:23:44;9.20;87.30
56478;DHT22;42382;53.210;5.772;2023-11-21T14:26:10;9.10;87.50
56478;DHT22;42382;53.210;5.772;2023-11-21T14:28:39;9.10;87.50
56478;DHT22;42382;53.210;5.772;2023-11-21T14:31:04;9.10;87.60
56478;DHT22;42382;53.210;5.772;2023-11-21T14:33:30;9.00;87.60
56478;DHT22;42382;53.210;5.772;2023-11-21T14:35:55;9.10;87.90
56478;DHT22;42382;53.210;5.772;2023-11-21T14:38:23;9.00;87.70
56478;DHT22;42382;53.210;5.772;2023-11-21T14:40:48;8.90;88.10
56478;DHT22;42382;53.210;5.772;2023-11-21T14:43:14;8.90;88.10
56478;DHT22;42382;53.210;5.772;2023-11-21T14:45:41;8.80;88.20
56478;DHT22;42382;53.210;5.772;2023-11-21T14:48:06;8.70;88.30
56478;DHT22;42382;53.210;5.772;2023-11-21T14:50:38;8.60;88.30
56478;DHT22;42382;53.210;5.772;2023-11-21T14:53:14;8.60;88.20
56478;DHT22;42382;53.210;5.772;2023-11-21T14:55:40;8.50;88.50
56478;DHT22;42382;53.210;5.772;2023-11-21T14:58:20;8.40;88.40
56478;DHT22;42382;53.210;5.772;2023-11-21T15:00:56;8.40;88.60
56478;DHT22;42382;53.210;5.772;2023-11-21T15:03:26;8.40;88.80
56478;DHT22;42382;53.210;5.772;2023-11-21T15:05:59;8.40;88.80
56478;DHT22;42382;53.210;5.772;2023-11-21T15:08:37;8.40;88.90
56478;DHT22;42382;53.210;5.772;2023-11-21T15:11:03;8.50;89.00
56478;DHT22;42382;53.210;5.772;2023-11-21T15:13:32;8.40;88.90
56478;DHT22;42382;53.210;5.772;2023-11-21T15:15:58;8.50;89.00
56478;DHT22;42382;53.210;5.772;2023-11-21T15:18:33;8.40;88.90
56478;DHT22;42382;53.210;5.772;2023-11-21T15:21:00;8.40;89.00
56478;DHT22;42382;53.210;5.772;2023-11-21T15:23:25;8.40;88.90
56478;DHT22;42382;53.210;5.772;2023-11-21T15:25:53;8.40;88.90
56478;DHT22;42382;53.210;5.772;2023-11-21T15:28:19;8.40;88.90
56478;DHT22;42382;53.210;5.772;2023-11-21T15:30:45;8.40;89.00
56478;DHT22;42382;53.210;5.772;2023-11-21T15:33:13;8.30;88.90
56478;DHT22;42382;53.210;5.772;2023-11-21T15:38:06;8.30;88.90
56478;DHT22;42382;53.210;5.772;2023-11-21T15:40:33;8.20;88.70
56478;DHT22;42382;53.210;5.772;2023-11-21T15:42:59;8.10;88.80
56478;DHT22;42382;53.210;5.772;2023-11-21T15:45:25;8.10;88.90
56478;DHT22;42382;53.210;5.772;2023-11-21T15:47:51;8.00;88.80
56478;DHT22;42382;53.210;5.772;2023-11-21T15:50:18;8.00;88.90
56478;DHT22;42382;53.210;5.772;2023-11-21T15:52:44;7.90;88.90